createdAt,value
2022-12-15T00:02:19.528Z,25.90
2022-12-15T00:05:05.360Z,25.87
2022-12-15T00:07:50.781Z,23.40
2022-12-15T00:10:36.600Z,30.23
2022-12-15T00:13:28.440Z,25.03
2022-12-15T00:16:14.326Z,22.17
2022-12-15T00:19:00.996Z,30.63
2022-12-15T00:21:46.930Z,26.97
2022-12-15T00:24:32.198Z,27.27
2022-12-15T00:27:17.529Z,24.67
2022-12-15T00:30:02.940Z,24.57
2022-12-15T00:32:48.241Z,24.73
2022-12-15T00:35:34.891Z,26.17
2022-12-15T00:38:25.502Z,27.90
2022-12-15T00:40:58.900Z,20.13
2022-12-15T00:43:27.590Z,26.10
2022-12-15T00:46:13.434Z,28.80
2022-12-15T00:48:41.873Z,19.37
2022-12-15T00:51:10.536Z,22.63
2022-12-15T00:53:55.912Z,20.67
2022-12-15T00:56:41.322Z,23.53
2022-12-15T00:59:27.589Z,22.80
2022-12-15T01:02:12.775Z,22.17
2022-12-15T01:04:57.961Z,22.03
2022-12-15T01:07:44.518Z,21.87
2022-12-15T01:10:35.303Z,19.50
2022-12-15T01:13:23.091Z,23.87
2022-12-15T01:16:08.590Z,23.10
2022-12-15T01:18:53.838Z,22.40
2022-12-15T01:21:24.577Z,22.20
2022-12-15T01:23:54.911Z,23.57
2022-12-15T01:26:22.652Z,18.77
2022-12-15T01:28:50.354Z,20.30
2022-12-15T01:31:18.228Z,20.37
2022-12-15T01:33:45.996Z,21.10
2022-12-15T01:36:14.311Z,20.87
2022-12-15T01:38:42.724Z,20.13
2022-12-15T01:41:12.430Z,20.03
2022-12-15T01:43:41.451Z,24.30
2022-12-15T01:46:11.139Z,20.00
2022-12-15T01:48:45.434Z,19.93
2022-12-15T01:51:26.157Z,22.57
2022-12-15T01:54:01.104Z,22.03
2022-12-15T01:56:37.371Z,23.20
2022-12-15T01:59:08.846Z,19.53
2022-12-15T02:01:36.898Z,23.97
2022-12-15T02:04:05.315Z,25.70
2022-12-15T02:06:33.224Z,24.27
2022-12-15T02:09:02.086Z,23.87
2022-12-15T02:11:45.932Z,21.03
2022-12-15T02:14:20.383Z,21.00
2022-12-15T02:17:03.098Z,20.37
2022-12-15T02:19:49.604Z,20.70
2022-12-15T02:22:29.089Z,20.00
2022-12-15T02:25:21.949Z,23.90
2022-12-15T02:28:00.194Z,20.80
2022-12-15T02:30:40.086Z,23.97
2022-12-15T02:33:12.867Z,26.90
2022-12-15T02:35:53.992Z,24.77
2022-12-15T02:38:32.588Z,21.73
2022-12-15T02:41:01.130Z,25.07
2022-12-15T02:43:30.917Z,24.30
2022-12-15T02:46:14.250Z,27.77
2022-12-15T02:48:50.296Z,24.77
2022-12-15T02:51:34.811Z,23.73
2022-12-15T02:54:19.924Z,25.53
2022-12-15T02:56:59.808Z,23.17
2022-12-15T02:59:39.727Z,25.13
2022-12-15T03:02:10.949Z,25.53
2022-12-15T03:04:39.228Z,26.50
2022-12-15T03:07:10.085Z,24.00
2022-12-15T03:09:38.029Z,23.63
2022-12-15T03:12:06.395Z,28.10
2022-12-15T03:14:34.775Z,27.07
2022-12-15T03:17:02.561Z,26.93
2022-12-15T03:19:31.618Z,24.90
2022-12-15T03:21:59.306Z,23.57
2022-12-15T03:24:27.084Z,27.90
2022-12-15T03:26:54.786Z,28.40
2022-12-15T03:29:22.684Z,27.07
2022-12-15T03:31:50.524Z,26.83
2022-12-15T03:34:18.449Z,29.23
2022-12-15T03:36:48.376Z,23.70
2022-12-15T03:39:16.074Z,26.17
2022-12-15T03:41:43.877Z,29.50
2022-12-15T03:44:12.141Z,23.73
2022-12-15T03:46:39.875Z,23.23
2022-12-15T03:49:07.926Z,22.27
2022-12-15T03:51:35.626Z,27.43
2022-12-15T03:54:04.819Z,29.90
2022-12-15T03:56:32.540Z,27.10
2022-12-15T03:59:00.323Z,27.93
2022-12-15T04:01:30.199Z,27.13
2022-12-15T04:04:01.096Z,27.30
2022-12-15T04:06:29.851Z,27.10
2022-12-15T04:08:57.759Z,23.77
2022-12-15T04:11:26.879Z,28.40
2022-12-15T04:13:54.578Z,30.10
2022-12-15T04:16:22.415Z,31.97
2022-12-15T04:19:11.005Z,27.87
2022-12-15T04:21:38.049Z,24.83
2022-12-15T04:24:24.026Z,28.80
2022-12-15T04:27:10.522Z,25.63
2022-12-15T04:29:55.995Z,28.37
2022-12-15T04:32:42.180Z,26.53
2022-12-15T04:35:29.420Z,25.40
2022-12-15T04:38:14.863Z,29.27
2022-12-15T04:41:00.113Z,31.23
2022-12-15T04:43:47.033Z,30.87
2022-12-15T04:46:32.546Z,30.63
2022-12-15T04:49:17.689Z,31.07
2022-12-15T04:52:03.164Z,30.50
2022-12-15T04:54:49.495Z,26.63
2022-12-15T04:57:34.822Z,28.93
2022-12-15T05:00:21.860Z,26.97
2022-12-15T05:03:07.239Z,33.03
2022-12-15T05:05:52.733Z,29.40
2022-12-15T05:08:38.226Z,28.73
2022-12-15T05:11:23.532Z,28.40
2022-12-15T05:14:08.924Z,29.97
2022-12-15T05:16:55.640Z,30.23
2022-12-15T05:19:40.951Z,26.77
2022-12-15T05:22:27.153Z,30.63
2022-12-15T05:25:12.503Z,28.83
2022-12-15T05:27:57.943Z,28.03
2022-12-15T05:30:43.277Z,29.17
2022-12-15T05:33:12.461Z,30.90
2022-12-15T05:35:40.225Z,26.43
2022-12-15T05:38:07.980Z,33.23
2022-12-15T05:40:35.698Z,30.07
2022-12-15T05:43:03.383Z,30.50
2022-12-15T05:45:31.164Z,28.70
2022-12-15T05:47:58.941Z,28.50
2022-12-15T05:50:28.008Z,31.80
2022-12-15T05:52:55.799Z,32.83
2022-12-15T05:55:23.463Z,32.10
2022-12-15T05:57:52.738Z,28.43
2022-12-15T06:00:21.232Z,28.00
2022-12-15T06:02:50.170Z,33.20
2022-12-15T06:05:18.265Z,30.07
2022-12-15T06:07:47.319Z,30.77
2022-12-15T06:10:15.062Z,28.07
2022-12-15T06:12:42.864Z,33.50
2022-12-15T06:15:11.203Z,29.97
2022-12-15T06:17:38.935Z,31.00
2022-12-15T06:20:07.831Z,31.77
2022-12-15T06:22:35.606Z,30.43
2022-12-15T06:25:05.288Z,32.73
2022-12-15T06:27:32.985Z,28.00
2022-12-15T06:30:01.439Z,35.43
2022-12-15T06:32:29.231Z,26.57
2022-12-15T06:34:57.460Z,30.93
2022-12-15T06:37:25.378Z,29.57
2022-12-15T06:39:53.195Z,31.93
2022-12-15T06:42:22.302Z,28.73
2022-12-15T06:44:50.172Z,32.27
2022-12-15T06:47:18.375Z,32.40
2022-12-15T06:49:46.239Z,32.27
2022-12-15T06:52:14.005Z,32.00
2022-12-15T06:54:42.370Z,27.60
2022-12-15T06:57:10.088Z,32.03
2022-12-15T06:59:39.198Z,31.63
2022-12-15T07:02:16.202Z,28.30
2022-12-15T07:04:44.607Z,33.17
2022-12-15T07:07:12.444Z,37.53
2022-12-15T07:09:40.096Z,33.70
2022-12-15T07:12:08.513Z,31.70
2022-12-15T07:14:36.214Z,34.37
2022-12-15T07:17:05.275Z,31.70
2022-12-15T07:19:32.967Z,30.03
2022-12-15T07:22:01.492Z,38.70
2022-12-15T07:24:29.320Z,33.37
2022-12-15T07:26:57.125Z,27.73
2022-12-15T07:29:24.954Z,28.83
2022-12-15T07:31:52.913Z,31.70
2022-12-15T07:34:22.044Z,35.97
2022-12-15T07:36:52.393Z,30.70
2022-12-15T07:39:21.189Z,34.30
2022-12-15T07:41:48.920Z,34.70
2022-12-15T07:44:17.154Z,27.50
2022-12-15T07:46:46.864Z,34.67
2022-12-15T07:49:14.765Z,27.70
2022-12-15T07:51:44.713Z,32.40
2022-12-15T07:54:13.403Z,28.97
2022-12-15T07:56:41.885Z,36.03
2022-12-15T07:59:10.098Z,31.70
2022-12-15T08:01:37.948Z,28.63
2022-12-15T08:04:06.114Z,36.47
2022-12-15T08:06:33.922Z,34.33
2022-12-15T08:09:03.099Z,35.03
2022-12-15T08:11:34.518Z,31.27
2022-12-15T08:14:04.098Z,36.63
2022-12-15T08:16:34.626Z,25.17
2022-12-15T08:19:02.855Z,27.67
2022-12-15T08:21:31.346Z,24.60
2022-12-15T08:24:00.864Z,22.20
2022-12-15T08:26:31.497Z,24.03
2022-12-15T08:29:31.719Z,23.70
2022-12-15T08:31:51.885Z,19.33
2022-12-15T08:34:19.829Z,20.00
2022-12-15T08:36:47.626Z,19.30
2022-12-15T08:39:15.378Z,20.40
2022-12-15T08:41:44.835Z,18.93
2022-12-15T08:44:12.654Z,18.33
2022-12-15T08:46:40.551Z,18.13
2022-12-15T08:49:08.746Z,23.10
2022-12-15T08:51:36.593Z,23.73
2022-12-15T08:54:04.561Z,25.70
2022-12-15T08:56:32.325Z,26.13
2022-12-15T08:59:03.185Z,36.70
2022-12-15T09:01:33.093Z,49.73
2022-12-15T09:04:01.412Z,62.13
2022-12-15T09:06:31.943Z,72.10
2022-12-15T09:09:02.379Z,34.63
2022-12-15T09:11:30.667Z,53.57
2022-12-15T09:13:58.544Z,37.00
2022-12-15T09:16:28.491Z,43.13
2022-12-15T09:18:58.382Z,28.37
2022-12-15T09:21:28.995Z,29.27
2022-12-15T09:24:00.749Z,49.73
2022-12-15T09:26:30.429Z,29.63
2022-12-15T09:28:58.409Z,20.67
2022-12-15T09:31:30.285Z,38.90
2022-12-15T09:33:59.793Z,51.77
2022-12-15T09:36:29.490Z,46.87
2022-12-15T09:38:57.249Z,33.80
2022-12-15T09:41:27.293Z,57.50
2022-12-15T09:43:58.854Z,24.37
2022-12-15T09:46:50.099Z,103.37
2022-12-15T09:49:32.104Z,51.27
2022-12-15T09:52:08.992Z,53.40
2022-12-15T09:54:41.645Z,32.57
2022-12-15T09:57:19.906Z,23.77
2022-12-15T10:00:07.372Z,34.87
2022-12-15T10:03:11.044Z,28.40
2022-12-15T10:06:14.813Z,29.83
2022-12-15T10:08:39.377Z,25.70
2022-12-15T10:11:18.157Z,27.33
2022-12-15T10:13:52.205Z,26.73
2022-12-15T10:16:25.559Z,28.17
2022-12-15T10:19:08.179Z,26.03
2022-12-15T10:21:36.542Z,26.20
2022-12-15T10:24:31.629Z,23.87
2022-12-15T10:27:19.867Z,23.77
2022-12-15T10:29:51.170Z,22.77
2022-12-15T10:32:20.867Z,23.70
2022-12-15T10:34:50.001Z,22.60
2022-12-15T10:37:20.623Z,24.17
2022-12-15T10:39:50.679Z,19.80
2022-12-15T10:42:22.867Z,20.50
2022-12-15T10:44:52.216Z,21.27
2022-12-15T10:47:23.418Z,19.60
2022-12-15T10:49:53.307Z,20.23
2022-12-15T10:52:27.289Z,23.37
2022-12-15T10:54:56.173Z,20.80
2022-12-15T10:57:28.770Z,19.77
2022-12-15T10:59:59.233Z,21.30
2022-12-15T11:02:32.758Z,25.57
2022-12-15T11:05:04.955Z,18.63
2022-12-15T11:07:37.848Z,21.27
2022-12-15T11:10:18.536Z,19.67
2022-12-15T11:12:59.258Z,20.90
2022-12-15T11:19:11.153Z,18.83
2022-12-15T11:21:45.977Z,18.43
2022-12-15T11:24:21.756Z,18.53
2022-12-15T11:26:54.031Z,43.57
2022-12-15T11:29:30.725Z,53.80
2022-12-15T11:32:04.804Z,40.27
2022-12-15T11:34:37.768Z,120.87
2022-12-15T11:37:39.143Z,80.07
2022-12-15T11:40:26.890Z,90.87
2022-12-15T11:43:11.017Z,49.73
2022-12-15T11:45:48.843Z,63.80
2022-12-15T11:48:19.046Z,94.17
2022-12-15T11:50:54.583Z,36.63
2022-12-15T11:53:42.313Z,23.67
2022-12-15T11:56:21.534Z,25.60
2022-12-15T11:59:09.885Z,60.20
2022-12-15T12:01:57.127Z,52.87
2022-12-15T12:04:31.625Z,31.63
2022-12-15T12:07:09.601Z,24.50
2022-12-15T12:09:44.818Z,35.00
2022-12-15T12:12:27.058Z,45.27
2022-12-15T12:15:09.888Z,23.13
2022-12-15T12:17:43.246Z,35.27
2022-12-15T12:20:18.704Z,32.40
2022-12-15T12:22:56.631Z,32.13
2022-12-15T12:25:26.609Z,57.23
2022-12-15T12:27:59.435Z,69.07
2022-12-15T12:30:31.177Z,35.63
2022-12-15T12:33:04.994Z,35.40
2022-12-15T12:35:39.715Z,21.77
2022-12-15T12:38:08.393Z,19.67
2022-12-15T12:40:47.443Z,15.63
2022-12-15T12:43:35.046Z,20.97
2022-12-15T12:46:10.049Z,18.60
2022-12-15T12:48:42.188Z,15.37
2022-12-15T12:51:30.079Z,18.97
2022-12-15T12:53:58.826Z,20.53
2022-12-15T12:56:33.012Z,18.37
2022-12-15T12:59:07.771Z,17.67
2022-12-15T13:01:37.532Z,15.87
2022-12-15T13:04:11.811Z,16.40
2022-12-15T13:07:01.347Z,16.20
2022-12-15T13:09:41.323Z,17.93
2022-12-15T13:12:51.182Z,17.57
2022-12-15T13:15:35.704Z,14.77
2022-12-15T13:18:12.565Z,15.60
2022-12-15T13:20:41.595Z,18.70
2022-12-15T13:23:46.667Z,18.87
2022-12-15T13:26:20.435Z,31.17
2022-12-15T13:28:53.141Z,22.23
2022-12-15T13:31:56.032Z,73.80
2022-12-15T13:34:30.758Z,38.63
2022-12-15T13:37:02.749Z,22.63
2022-12-15T13:39:53.054Z,25.30
2022-12-15T13:42:40.244Z,32.67
2022-12-15T13:45:51.073Z,41.03
2022-12-15T13:48:38.283Z,55.87
2022-12-15T13:51:25.264Z,19.30
2022-12-15T13:56:59.195Z,16.03
2022-12-15T13:59:39.210Z,19.17
2022-12-15T14:02:24.739Z,20.33
2022-12-15T14:05:12.670Z,13.30
2022-12-15T14:07:43.713Z,17.20
2022-12-15T14:10:19.910Z,17.33
2022-12-15T14:12:49.809Z,17.50
2022-12-15T14:15:21.242Z,12.73
2022-12-15T14:17:52.501Z,11.43
2022-12-15T14:20:22.125Z,14.27
2022-12-15T14:22:52.564Z,12.40
2022-12-15T14:25:23.252Z,12.60
2022-12-15T14:27:51.548Z,11.83
2022-12-15T14:30:25.442Z,11.87
2022-12-15T14:32:57.141Z,10.27
2022-12-15T14:35:32.215Z,17.73
2022-12-15T14:38:04.458Z,12.63
2022-12-15T14:40:35.589Z,14.47
2022-12-15T14:43:03.939Z,15.47
2022-12-15T14:45:33.623Z,13.73
2022-12-15T14:48:39.556Z,14.17
2022-12-15T14:50:51.725Z,15.77
2022-12-15T14:53:24.070Z,15.60
2022-12-15T14:55:51.910Z,15.30
2022-12-15T14:58:33.264Z,15.10
2022-12-15T15:01:03.369Z,16.47
2022-12-15T15:03:12.194Z,21.93
2022-12-15T15:03:37.174Z,16.13
2022-12-15T15:06:08.387Z,16.00
2022-12-15T15:08:44.331Z,44.53
2022-12-15T15:11:24.153Z,26.70
2022-12-15T15:13:56.189Z,34.23
2022-12-15T15:16:24.483Z,22.73
2022-12-15T15:18:54.393Z,41.37
2022-12-15T15:21:24.921Z,52.90
2022-12-15T15:24:01.703Z,48.40
2022-12-15T15:26:30.895Z,58.07
2022-12-15T15:28:59.225Z,41.77
2022-12-15T15:31:36.802Z,83.33
2022-12-15T15:34:08.487Z,62.07
2022-12-15T15:36:40.847Z,88.23
2022-12-15T15:39:16.150Z,79.17
2022-12-15T15:41:43.943Z,220.57
2022-12-15T15:44:14.596Z,197.87
2022-12-15T15:46:47.694Z,174.30
2022-12-15T15:49:18.145Z,263.43
2022-12-15T15:51:46.418Z,366.77
2022-12-15T15:54:18.380Z,50.80
2022-12-15T15:56:46.148Z,31.47
2022-12-15T15:59:16.336Z,34.03
2022-12-15T16:01:44.785Z,24.67
2022-12-15T16:04:12.724Z,18.13
2022-12-15T16:06:46.677Z,19.47
2022-12-15T16:09:16.898Z,21.30
2022-12-15T16:11:45.547Z,20.17
2022-12-15T16:14:14.323Z,17.47
2022-12-15T16:16:42.762Z,20.60
2022-12-15T16:19:12.072Z,16.77
2022-12-15T16:21:41.475Z,19.73
2022-12-15T16:24:12.368Z,20.17
2022-12-15T16:26:48.445Z,20.77
2022-12-15T16:29:18.451Z,18.63
2022-12-15T16:31:46.767Z,19.57
2022-12-15T16:34:16.487Z,19.97
2022-12-15T16:36:45.222Z,21.57
2022-12-15T16:39:25.457Z,21.83
2022-12-15T16:41:56.721Z,27.60
2022-12-15T16:44:24.752Z,21.93
2022-12-15T16:46:52.567Z,21.90
2022-12-15T16:49:20.370Z,21.60
2022-12-15T16:51:50.200Z,21.83
2022-12-15T16:54:20.905Z,24.50
2022-12-15T16:56:48.830Z,26.10
2022-12-15T16:59:36.137Z,24.87
2022-12-15T17:02:24.388Z,20.73
2022-12-15T17:04:52.449Z,23.33
2022-12-15T17:07:21.001Z,22.67
2022-12-15T17:09:50.154Z,22.90
2022-12-15T17:12:18.956Z,23.47
2022-12-15T17:14:48.353Z,22.13
2022-12-15T17:17:17.377Z,24.53
2022-12-15T17:20:11.689Z,25.70
2022-12-15T17:22:33.766Z,26.90
2022-12-15T17:25:01.731Z,29.33
2022-12-15T17:27:31.509Z,24.67
2022-12-15T17:30:02.383Z,22.30
2022-12-15T17:32:30.235Z,29.83
2022-12-15T17:34:58.236Z,23.30
2022-12-15T17:37:28.076Z,25.20
2022-12-15T17:39:59.791Z,24.93
2022-12-15T17:42:27.658Z,25.70
2022-12-15T17:44:55.509Z,21.70
2022-12-15T17:47:25.559Z,23.23
2022-12-15T17:49:53.385Z,24.13
2022-12-15T17:52:27.901Z,25.57
2022-12-15T17:54:56.232Z,29.37
2022-12-15T17:57:24.094Z,23.83
2022-12-15T17:59:52.025Z,27.20
2022-12-15T18:02:20.460Z,24.70
2022-12-15T18:04:49.973Z,28.47
2022-12-15T18:07:20.555Z,25.87
2022-12-15T18:09:48.921Z,26.57
2022-12-15T18:12:22.442Z,24.53
2022-12-15T18:14:50.385Z,27.17
2022-12-15T18:17:18.250Z,25.37
2022-12-15T18:19:46.491Z,28.70
2022-12-15T18:22:18.967Z,27.33
2022-12-15T18:24:47.207Z,29.23
2022-12-15T18:27:25.949Z,28.90
2022-12-15T18:29:54.106Z,30.03
2022-12-15T18:32:24.253Z,27.20
2022-12-15T18:34:52.445Z,24.73
2022-12-15T18:37:25.643Z,28.60
2022-12-15T18:39:54.735Z,24.67
2022-12-15T18:42:23.938Z,23.90
2022-12-15T18:44:53.522Z,27.40
2022-12-15T18:47:24.996Z,25.43
2022-12-15T18:49:53.022Z,26.53
2022-12-15T18:52:23.688Z,28.17
2022-12-15T18:54:53.265Z,28.50
2022-12-15T18:57:29.145Z,32.10
2022-12-15T18:59:59.663Z,26.70
2022-12-15T19:02:27.480Z,27.43
2022-12-15T19:04:55.340Z,28.07
2022-12-15T19:07:24.449Z,29.03
2022-12-15T19:09:52.408Z,25.40
2022-12-15T19:12:20.200Z,29.40
2022-12-15T19:14:50.021Z,24.60
2022-12-15T19:17:37.319Z,29.77
2022-12-15T19:20:24.783Z,27.87
2022-12-15T19:22:54.279Z,28.80
2022-12-15T19:25:26.128Z,29.63
2022-12-15T19:27:58.673Z,27.07
2022-12-15T19:30:28.859Z,26.40
2022-12-15T19:32:56.902Z,32.50
2022-12-15T19:35:25.465Z,28.73
2022-12-15T19:37:56.677Z,26.37
2022-12-15T19:40:27.775Z,24.87
2022-12-15T19:42:55.980Z,30.10
2022-12-15T19:45:26.020Z,31.67
2022-12-15T19:47:54.134Z,25.27
2022-12-15T19:50:24.333Z,28.87
2022-12-15T19:52:56.483Z,31.63
2022-12-15T19:55:27.531Z,27.23
2022-12-15T19:57:55.374Z,28.50
2022-12-15T20:00:27.786Z,29.43
2022-12-15T20:02:56.741Z,30.77
2022-12-15T20:05:25.964Z,27.20
2022-12-15T20:07:56.225Z,31.00
2022-12-15T20:10:31.928Z,31.10
2022-12-15T20:13:00.849Z,30.00
2022-12-15T20:15:28.918Z,25.90
2022-12-15T20:17:57.418Z,28.03
2022-12-15T20:20:28.670Z,28.63
2022-12-15T20:23:03.525Z,27.67
2022-12-15T20:25:35.431Z,24.77
2022-12-15T20:28:04.424Z,30.77
2022-12-15T20:30:35.318Z,25.80
2022-12-15T20:33:05.133Z,28.87
2022-12-15T20:35:37.479Z,29.47
2022-12-15T20:38:18.512Z,29.60
2022-12-15T20:40:46.418Z,30.53
2022-12-15T20:43:17.261Z,30.73
2022-12-15T20:45:54.756Z,27.43
2022-12-15T20:48:26.265Z,29.97
2022-12-15T20:50:54.128Z,26.73
2022-12-15T20:53:25.018Z,30.40
2022-12-15T20:55:54.220Z,28.73
2022-12-15T20:58:22.045Z,27.53
2022-12-15T21:00:51.845Z,28.50
2022-12-15T21:03:23.627Z,28.17
2022-12-15T21:05:52.551Z,28.43
2022-12-15T21:08:25.894Z,29.47
2022-12-15T21:10:55.270Z,29.87
2022-12-15T21:13:25.827Z,29.43
2022-12-15T21:15:54.022Z,28.37
2022-12-15T21:19:10.808Z,38.00
2022-12-15T21:21:18.865Z,30.03
2022-12-15T21:23:48.876Z,30.20
2022-12-15T21:26:19.906Z,29.67
2022-12-15T21:28:48.675Z,28.93
2022-12-15T21:31:16.641Z,29.50
2022-12-15T21:33:45.488Z,32.10
2022-12-15T21:36:14.479Z,28.97
2022-12-15T21:38:43.974Z,31.17
2022-12-15T21:41:17.345Z,30.63
2022-12-15T21:43:45.491Z,27.87
2022-12-15T21:46:15.905Z,30.27
2022-12-15T21:49:01.255Z,32.73
2022-12-15T21:51:31.109Z,30.07
2022-12-15T21:53:59.072Z,29.40
2022-12-15T21:56:28.335Z,29.20
2022-12-15T21:58:56.651Z,26.90
2022-12-15T22:01:28.651Z,29.23
2022-12-15T22:03:58.451Z,29.50
2022-12-15T22:06:27.733Z,27.73
2022-12-15T22:08:56.569Z,29.93
2022-12-15T22:11:26.124Z,30.97
2022-12-15T22:13:58.013Z,28.97
2022-12-15T22:16:25.992Z,27.20
2022-12-15T22:18:56.414Z,24.07
2022-12-15T22:21:24.769Z,29.57
2022-12-15T22:23:52.952Z,31.10
2022-12-15T22:26:23.302Z,29.13
2022-12-15T22:28:51.782Z,28.90
2022-12-15T22:31:21.002Z,33.30
2022-12-15T22:33:48.900Z,34.70
2022-12-15T22:36:16.616Z,32.80
2022-12-15T22:38:45.305Z,27.43
2022-12-15T22:41:19.385Z,30.00
2022-12-15T22:43:50.144Z,29.80
2022-12-15T22:46:18.357Z,29.07
2022-12-15T22:48:48.625Z,29.23
2022-12-15T22:51:17.868Z,27.83
2022-12-15T22:53:45.905Z,29.80
2022-12-15T22:56:22.878Z,31.00
2022-12-15T22:58:53.848Z,28.73
2022-12-15T23:01:21.673Z,25.10
2022-12-15T23:03:51.935Z,29.83
2022-12-15T23:06:20.086Z,31.67
2022-12-15T23:08:51.184Z,26.60
2022-12-15T23:11:37.779Z,29.27
2022-12-15T23:14:06.618Z,28.23
2022-12-15T23:16:34.488Z,26.67
2022-12-15T23:19:04.180Z,28.53
2022-12-15T23:21:32.327Z,28.33
2022-12-15T23:24:00.183Z,23.60
2022-12-15T23:26:28.506Z,27.73
2022-12-15T23:28:56.274Z,28.00
2022-12-15T23:31:24.258Z,25.80
2022-12-15T23:33:52.341Z,27.43
2022-12-15T23:36:21.601Z,27.10
2022-12-15T23:38:49.295Z,29.43
2022-12-15T23:41:18.692Z,31.50
2022-12-15T23:43:46.435Z,30.80
2022-12-15T23:46:14.367Z,28.60
2022-12-15T23:48:44.591Z,35.33
2022-12-15T23:51:14.423Z,30.60
2022-12-15T23:53:44.485Z,30.17
2022-12-15T23:56:14.177Z,26.90
2022-12-15T23:58:43.377Z,35.23
